logo
App data

Epsilon

Epsilon is a hybrid stealth-action near-future tactical shooter where pre-planning and commanding your squad is essential for survival. Through high intensity kinetic operations, Epsilon is the unit tasked by Unipol to counter Eastern European militias engaged in human trafficking.
Store | Hub | SteamDB | Site
Developer: Serellan LLC Publisher: Serellan LLC
Genre: Action, Indie, Strategy, Early Access
Languages: English
Tags: Action (34), Strategy (32), Early Access (32), Indie (31), Tactical (15), FPS (10)
Category: Single-player, Steam Achievements, Steam Trading Cards, Partial Controller Support
Release date: Oct 1, 2015
N/A
Old userscore: 52% Owners: 50,000 .. 100,000
Followers: 1,882
YouTube stats: 72,937 views and 799 comments for top 50 videos uploaded last week, 27 new videos uploaded yesterday.

Steam Spy is still in beta, so expect major bugs.

Owners data:

Access restricted.

This feature is only available to users with special access rights. Sorry.

If you want to proceed, you need to register or log in first and then back Steam Spy on Patreon. Look for Indie or Pro pledge.

Don't forget to use the same email as on Steam Spy!

If you've recently backed Steam Spy on Patreon, please note, that it might take around 15 minutes for your access rights to sync. In most cases you'll need to re-login on Steam Spy too.

Audience in 2 weeks:

Access restricted.

This feature is only available to users with special access rights. Sorry.

If you want to proceed, you need to register or log in first and then back Steam Spy on Patreon. Look for Indie or Pro pledge.

Don't forget to use the same email as on Steam Spy!

If you've recently backed Steam Spy on Patreon, please note, that it might take around 15 minutes for your access rights to sync. In most cases you'll need to re-login on Steam Spy too.

Peak daily concurrent players:

CCU data courtesy of SteamDB. Used with permission.

Hourly concurrent players:

Followers over time

Access restricted.

This feature is only available to users with special access rights. Sorry.

If you want to proceed, you need to register or log in first and then back Steam Spy on Patreon. Look for Indie or Pro pledge.

Don't forget to use the same email as on Steam Spy!

If you've recently backed Steam Spy on Patreon, please note, that it might take around 15 minutes for your access rights to sync. In most cases you'll need to re-login on Steam Spy too.

Views for top 50 videos on YouTube for this game:

Games similar to this one:

# Game Release date
Price
Score rank
(Userscore / Metascore)
Owners
Players
Playtime (Median)
1 Albert and Otto Oct 28, 2015 $4.99N/A (N/A/69%)100,000 .. 200,0000%00:00 (00:00)
2 Life is Hard Aug 14, 2021 $9.99N/A (N/A)50,000 .. 100,0000%00:00 (00:00)
3 Planet R-12 May 5, 2016 $0.49N/A (N/A)50,000 .. 100,00012.5%01:14 (00:24)
4 This Book Is A Dungeon Oct 9, 2015 $0.49N/A (N/A)100,000 .. 200,00050%00:47 (00:47)
5 Goblins and Grottos Jul 7, 2016 $5.84N/A (N/A)20,000 .. 50,0000%00:00 (00:00)
6 Shadow Ninja: Apocalypse Nov 16, 2015 $0.59N/A (N/A)50,000 .. 100,0000%00:00 (00:00)
7 16bit Trader Jun 4, 2015 $0.53N/A (N/A)200,000 .. 500,0000%00:00 (00:00)
8 Stargazer May 28, 2015 $4.99N/A (N/A)50,000 .. 100,0000%00:00 (00:00)
9 Shot In The Dark Jun 10, 2015 FreeN/A (N/A)20,000 .. 50,0000%00:00 (00:00)
10 The Swindle Jul 28, 2015 $2.99N/A (N/A/70%)50,000 .. 100,0000%00:00 (00:00)
11 OmniBus May 26, 2016 $1.24N/A (N/A/55%)20,000 .. 50,0000%00:00 (00:00)
12 Lootfest Mar 14, 2015 FreeN/A (N/A)0 .. 20,0000%00:00 (00:00)
13 Iggy's Egg Adventure Aug 27, 2015 N/AN/A (N/A)20,000 .. 50,0000%00:00 (00:00)
14 Gynophobia Jul 31, 2015 $1.59N/A (N/A)50,000 .. 100,0000%00:00 (00:00)
15 SUPER DISTRO Jul 22, 2015 $0.99N/A (N/A)200,000 .. 500,0000%00:00 (00:00)
16 Lucius Demake Aug 8, 2016 $0.74N/A (N/A)20,000 .. 50,0000%00:00 (00:00)
17 Face It - A game to fight inner demons Jun 9, 2017 $0.54N/A (N/A)500,000 .. 1,000,0000%00:00 (00:00)
18 Remnants Of Isolation May 1, 2015 $0.51N/A (N/A)100,000 .. 200,0006.67%00:59 (00:19)
19 Good Robot Apr 5, 2016 $2.24N/A (N/A/67%)20,000 .. 50,0000%00:00 (00:00)
20 Telepath Tactics Apr 16, 2015 $14.99N/A (N/A)0 .. 20,0000%00:00 (00:00)
21 Scrap Garden May 6, 2016 $9.99N/A (N/A/58%)200,000 .. 500,0000%00:00 (00:00)
22 The End Is Nigh Jul 12, 2017 $7.49N/A (N/A/84%)100,000 .. 200,0000%00:00 (00:00)
23 The Last Hope: Trump vs Mafia - North Korea Jan 20, 2017 $0.49N/A (N/A)50,000 .. 100,0005.88%00:42 (00:14)
24 No Way Out Oct 4, 2018 $0.49N/A (N/A)50,000 .. 100,0000%00:00 (00:00)
25 A Trip to Yugoslavia: Director's Cut Feb 22, 2017 $0.54N/A (N/A)50,000 .. 100,0000%00:00 (00:00)
26 Tales of the Elements Oct 13, 2016 $1.74N/A (N/A)50,000 .. 100,0000%00:00 (00:00)
27 Sundered: Eldritch Edition Jul 28, 2017 $3.99N/A (N/A)200,000 .. 500,0000%00:00 (00:00)
28 Shio May 4, 2017 $4.79N/A (N/A)100,000 .. 200,0000%00:00 (00:00)
29 Alicemare Nov 21, 2016 $1.19N/A (N/A)50,000 .. 100,0000%00:00 (00:00)
30 Fly and Destroy Jul 27, 2016 $1.09N/A (N/A)100,000 .. 200,0000%00:00 (00:00)
31 An Imp? A Fiend! Mar 16, 2015 $0.59N/A (N/A)20,000 .. 50,0000%00:00 (00:00)
32 Kaboom Monsters Jul 7, 2016 $0.53N/A (N/A)20,000 .. 50,0000%00:00 (00:00)
33 Masquerada: Songs and Shadows Sep 30, 2016 $5.99N/A (N/A/64%)100,000 .. 200,0000%00:00 (00:00)
34 Love is Blind: Mutants Mar 15, 2016 N/AN/A (N/A)100,000 .. 200,0000%00:00 (00:00)
35 Artificial Defense Jun 1, 2016 $2.99N/A (N/A)20,000 .. 50,0000%00:00 (00:00)
36 Squirbs Jan 6, 2016 $0.49N/A (N/A)50,000 .. 100,0000%00:00 (00:00)
37 Islet Online Feb 12, 2019 $16.99N/A (N/A)20,000 .. 50,0000%00:00 (00:00)
38 P.A.M.E.L.A. Jun 18, 2020 $12.49N/A (N/A)20,000 .. 50,0000%00:00 (00:00)
39 Defragmented Feb 12, 2016 $2.49N/A (N/A/68%)0 .. 20,0000%00:00 (00:00)
40 Save Your Mother Dec 3, 2015 $0.74N/A (N/A)20,000 .. 50,0000%00:00 (00:00)
41 Robowars Oct 24, 2014 N/AN/A (N/A)100,000 .. 200,0000%00:00 (00:00)
42 See No Evil Aug 25, 2014 $0.99N/A (N/A)100,000 .. 200,0000%00:00 (00:00)
43 Asteria Jul 3, 2014 $0.99N/A (N/A)20,000 .. 50,0000%00:00 (00:00)
44 Heroes & Legends: Conquerors of Kolhar Aug 21, 2014 $2.49N/A (N/A)20,000 .. 50,0000%00:00 (00:00)
45 Battle Mages Nov 27, 2003 $0.59N/A (N/A)0 .. 20,0000%00:00 (00:00)
46 Battlepaths Oct 28, 2012 $0.59N/A (N/A)200,000 .. 500,0000%00:00 (00:00)
47 Duet Aug 3, 2015 $4.99N/A (N/A)20,000 .. 50,0000%00:00 (00:00)
48 Selfie : Sisters of the Amniotic Lens May 8, 2015 N/AN/A (N/A)50,000 .. 100,0000%00:00 (00:00)
49 Pier Solar and the Great Architects Sep 29, 2014 $14.99N/A (N/A/73%)50,000 .. 100,0000%00:00 (00:00)
50 QuestRun Apr 18, 2014 $0.59N/A (N/A)200,000 .. 500,0000%00:00 (00:00)
51 Heroes of a Broken Land Aug 7, 2014 $3.74N/A (N/A)20,000 .. 50,0000%00:00 (00:00)
52 Chip Apr 25, 2014 $1.49N/A (N/A)200,000 .. 500,0000%00:00 (00:00)
53 Mr. Bree+ Nov 26, 2013 $2.99N/A (N/A)20,000 .. 50,0000%00:00 (00:00)
54 So Many Me Jul 17, 2014 $14.99N/A (N/A/78%)0 .. 20,0000%00:00 (00:00)
55 Citizens of Earth Jan 20, 2015 $3.74N/A (N/A/66%)100,000 .. 200,0000%00:00 (00:00)
56 Redshirt Nov 13, 2013 $2.49N/A (N/A/62%)20,000 .. 50,0000%00:00 (00:00)
57 10,000,000 Jan 15, 2013 $1.69N/A (N/A/67%)100,000 .. 200,0000%00:00 (00:00)
58 Avernum 4 May 11, 2012 $1.49N/A (N/A)50,000 .. 100,0000%00:00 (00:00)
59 SpellForce 2: Faith in Destiny Jun 19, 2012 $3.74N/A (N/A/55%)100,000 .. 200,0000%00:00 (00:00)
60 Puzzle Quest 2 Aug 12, 2010 N/AN/A (N/A/83%)50,000 .. 100,0000%00:00 (00:00)
61 Squirreltopia Jan 12, 2015 $0.99N/A (N/A)20,000 .. 50,0000%00:00 (00:00)
62 Galaxy of Pen & Paper +1 Jul 27, 2017 $5.09N/A (N/A)0 .. 20,0000%00:00 (00:00)
63 Vapour Jul 3, 2015 $0.99N/A (N/A)50,000 .. 100,0000%00:00 (00:00)
64 Into The Gloom Jan 30, 2015 $1.01N/A (N/A)20,000 .. 50,0000%00:00 (00:00)
65 The Lady Jan 29, 2015 FreeN/A (N/A)50,000 .. 100,0000%00:00 (00:00)
66 Elements: Soul of Fire Jan 12, 2015 N/AN/A (N/A)50,000 .. 100,0000%00:00 (00:00)
67 Just Get Through Jan 30, 2015 $1.49N/A (N/A)20,000 .. 50,0000%00:00 (00:00)
68 Final Dusk Dec 12, 2014 $2.99N/A (N/A)100,000 .. 200,0000%00:00 (00:00)
69 Distant Star: Revenant Fleet Apr 7, 2015 $2.49N/A (N/A)50,000 .. 100,0000%00:00 (00:00)
70 An Assassin in Orlandes May 12, 2015 $0.99N/A (N/A)0 .. 20,0000%00:00 (00:00)
71 Eschalon: Book II May 12, 2010 $2.99N/A (N/A)50,000 .. 100,0000%00:00 (00:00)
72 Towers of Altrac - Epic Defense Battles Jan 5, 2015 $1.67N/A (N/A)20,000 .. 50,0000%00:00 (00:00)
73 1Quest Dec 3, 2014 $3.99N/A (N/A)50,000 .. 100,0000%00:00 (00:00)
74 Data Hacker: Reboot Apr 17, 2015 $0.99N/A (N/A)100,000 .. 200,0000%00:00 (00:00)
75 It's A Wipe! Dec 11, 2014 $4.99N/A (N/A)0 .. 20,0000%00:00 (00:00)
76 KeeperRL Mar 31, 2015 $15.99N/A (N/A)100,000 .. 200,0000%00:00 (00:00)
77 The Repopulation Dec 19, 2014 $19.99N/A (N/A)50,000 .. 100,0000%00:00 (00:00)
78 Solstice Mar 23, 2016 $5.99N/A (N/A)0 .. 20,0000%00:00 (00:00)
79 Parcel Apr 22, 2015 $4.99N/A (N/A)20,000 .. 50,0000%00:00 (00:00)
80 Celestian Tales: Old North Aug 10, 2015 $1.29N/A (N/A)50,000 .. 100,0000%00:00 (00:00)

Tags over time:

Access restricted.

This feature is only available to users with special access rights. Sorry.

If you want to proceed, you need to register or log in first and then back Steam Spy on Patreon. Look for Indie or Pro pledge.

Don't forget to use the same email as on Steam Spy!

If you've recently backed Steam Spy on Patreon, please note, that it might take around 15 minutes for your access rights to sync. In most cases you'll need to re-login on Steam Spy too.

Owners of this game also own:

Access restricted.

This feature is only available to users with special access rights. Sorry.

If you want to proceed, you need to register or log in first and then back Steam Spy on Patreon. Look for Indie or Pro pledge.

Don't forget to use the same email as on Steam Spy!

If you've recently backed Steam Spy on Patreon, please note, that it might take around 15 minutes for your access rights to sync. In most cases you'll need to re-login on Steam Spy too.

Playtime distribution:

Access restricted.

This feature is only available to users with special access rights. Sorry.

If you want to proceed, you need to register or log in first and then back Steam Spy on Patreon. Look for Indie or Pro pledge.

Don't forget to use the same email as on Steam Spy!

If you've recently backed Steam Spy on Patreon, please note, that it might take around 15 minutes for your access rights to sync. In most cases you'll need to re-login on Steam Spy too.

Playtime (2 weeks):

Access restricted.

This feature is only available to users with special access rights. Sorry.

If you want to proceed, you need to register or log in first and then back Steam Spy on Patreon. Look for Indie or Pro pledge.

Don't forget to use the same email as on Steam Spy!

If you've recently backed Steam Spy on Patreon, please note, that it might take around 15 minutes for your access rights to sync. In most cases you'll need to re-login on Steam Spy too.

User reviews:

Login required.

Please register or log in to see this information.